Time;durP1;ratioP1;P1;durP2;ratioP2;P2;SDS_P1;SDS_P2;PMS_P1;PMS_P2;Temp;Humidity;BMP_temperature;BMP_pressure;BME280_temperature;BME280_humidity;BME280_pressure;Samples;Min_cycle;Max_cycle;Signal;HPM_P1;HPM_P2
2022/12/18 00:01:25;;;;;;;155.82;64.82;;;;;;;-8.66;100.00;158334.03;5026884;28;20392;-59
2022/12/18 00:03:53;;;;;;;172.52;65.78;;;;;;;-8.69;100.00;158324.72;5029586;28;20057;-59
2022/12/18 00:06:19;;;;;;;158.02;64.13;;;;;;;-8.77;100.00;158304.78;5028308;28;20072;-59
2022/12/18 00:08:45;;;;;;;174.45;70.70;;;;;;;-8.97;100.00;158254.16;5030202;28;20120;-59
2022/12/18 00:11:13;;;;;;;151.57;65.10;;;;;;;-8.88;100.00;158275.47;5031403;28;20044;-59
2022/12/18 00:13:38;;;;;;;167.63;72.53;;;;;;;-8.89;100.00;158272.78;5033090;28;20052;-59
2022/12/18 00:16:15;;;;;;;160.00;64.70;;;;;;;-8.93;100.00;158264.84;5030580;28;20504;-59
2022/12/18 00:18:41;;;;;;;143.20;59.28;;;;;;;-8.98;100.00;158251.53;5033095;28;20495;-59
2022/12/18 00:21:09;;;;;;;141.00;62.45;;;;;;;-9.03;100.00;158238.22;5031517;28;20087;-59
2022/12/18 00:23:36;;;;;;;164.93;64.63;;;;;;;-9.10;100.00;158220.94;5032916;28;20025;-59
2022/12/18 00:26:04;;;;;;;120.43;56.33;;;;;;;-9.16;100.00;158203.63;5030957;28;20049;-59
2022/12/18 00:28:29;;;;;;;128.63;68.40;;;;;;;-9.18;100.00;158198.28;5022418;28;20480;-59
2022/12/18 00:31:03;;;;;;;123.40;55.38;;;;;;;-9.22;100.00;158187.66;5011290;28;20041;-59
2022/12/18 00:33:28;;;;;;;134.63;58.45;;;;;;;-9.23;100.00;158186.31;5012966;28;20116;-59
2022/12/18 00:35:54;;;;;;;122.20;54.45;;;;;;;-9.25;100.00;158182.31;5012250;28;20125;-61
2022/12/18 00:38:19;;;;;;;145.15;62.65;;;;;;;-9.28;100.00;158174.38;5012918;28;20129;-60
2022/12/18 00:40:44;;;;;;;125.25;61.30;;;;;;;-9.28;100.00;158174.38;5011466;28;20037;-62
2022/12/18 00:43:10;;;;;;;125.90;59.30;;;;;;;-9.26;100.00;158179.66;5012838;28;20393;-62
2022/12/18 00:45:35;;;;;;;101.93;51.10;;;;;;;-9.22;100.00;158187.66;5011472;28;20100;-62
2022/12/18 00:48:00;;;;;;;138.15;56.20;;;;;;;-9.23;100.00;158185.00;5012497;28;20034;-62
2022/12/18 00:50:26;;;;;;;115.00;54.25;;;;;;;-9.26;100.00;158179.66;5013175;28;20022;-63
2022/12/18 00:52:51;;;;;;;114.20;52.35;;;;;;;-9.33;100.00;158161.03;5011712;28;20034;-62
2022/12/18 00:55:18;;;;;;;120.55;53.50;;;;;;;-9.39;100.00;158145.06;5012322;28;20488;-62
2022/12/18 00:57:43;;;;;;;108.40;55.15;;;;;;;-9.43;100.00;158134.47;5011213;28;20038;-62
2022/12/18 01:00:13;;;;;;;108.53;53.97;;;;;;;-9.49;100.00;158118.50;5012841;28;20124;-62
2022/12/18 01:02:40;;;;;;;107.90;52.65;;;;;;;-9.49;100.00;158118.50;5024967;28;20045;-62
2022/12/18 01:05:06;;;;;;;111.00;51.33;;;;;;;-9.51;100.00;158113.16;5032476;28;20022;-62
2022/12/18 01:07:32;;;;;;;117.82;52.33;;;;;;;-9.56;100.00;158102.50;5031044;28;20045;-63
2022/12/18 01:09:57;;;;;;;108.55;51.30;;;;;;;-9.52;100.00;158110.50;5032070;28;20029;-62
2022/12/18 01:12:22;;;;;;;110.22;50.10;;;;;;;-9.52;100.00;158111.81;5030985;28;20159;-62
2022/12/18 01:14:48;;;;;;;118.32;54.25;;;;;;;-9.50;100.00;158115.84;5032428;28;20036;-62
2022/12/18 01:17:14;;;;;;;115.60;54.08;;;;;;;-9.50;100.00;158115.84;5030558;28;20053;-62
2022/12/18 01:19:39;;;;;;;106.35;51.17;;;;;;;-9.57;100.00;158099.84;5032333;28;20053;-63
2022/12/18 01:22:05;;;;;;;105.85;49.15;;;;;;;-9.57;100.00;158099.84;5030362;28;20068;-62
2022/12/18 01:24:30;;;;;;;119.03;51.60;;;;;;;-9.61;100.00;158089.22;5032153;28;20025;-62
2022/12/18 01:26:57;;;;;;;113.25;49.33;;;;;;;-9.54;100.00;158105.16;5030158;28;20041;-62
2022/12/18 01:29:22;;;;;;;106.97;52.13;;;;;;;-9.70;100.00;158065.25;5031845;28;20028;-63
2022/12/18 01:31:48;;;;;;;119.20;53.08;;;;;;;-9.54;100.00;158105.16;5030725;28;20492;-63
2022/12/18 01:34:13;;;;;;;125.47;51.80;;;;;;;-9.65;100.00;158078.59;5031210;28;20033;-62
2022/12/18 01:36:38;;;;;;;100.10;47.45;;;;;;;-9.46;100.00;158126.47;5030387;28;20037;-62
2022/12/18 01:39:09;;;;;;;125.07;54.80;;;;;;;-9.47;100.00;158123.78;5031612;28;20492;-62
2022/12/18 01:44:53;;;;;;;109.40;49.85;;;;;;;-9.53;100.00;158109.16;5031658;28;20056;-63
2022/12/18 01:47:50;;;;;;;99.70;47.78;;;;;;;-9.63;100.00;158083.88;5029929;28;20054;-63
2022/12/18 01:50:31;;;;;;;116.55;52.58;;;;;;;-9.68;100.00;158070.59;5031203;28;20452;-62
2022/12/18 01:53:09;;;;;;;100.57;44.90;;;;;;;-9.67;100.00;158073.25;5030157;28;20049;-62
2022/12/18 01:55:57;;;;;;;109.20;46.40;;;;;;;-9.68;100.00;158069.28;5029805;28;20420;-62
2022/12/18 01:58:37;;;;;;;95.47;48.53;;;;;;;-9.67;100.00;158073.25;5031067;28;20037;-63
2022/12/18 02:01:02;;;;;;;96.15;47.22;;;;;;;-9.65;100.00;158078.59;5013526;28;20037;-63
2022/12/18 02:03:27;;;;;;;90.53;46.10;;;;;;;-9.69;100.00;158067.94;5011440;28;20022;-63
2022/12/18 02:06:12;;;;;;;105.32;47.63;;;;;;;-9.67;100.00;158073.25;5010345;28;20408;-63
2022/12/18 02:08:37;;;;;;;92.40;44.25;;;;;;;-9.68;100.00;158070.59;5011713;28;20032;-63
2022/12/18 02:11:10;;;;;;;96.07;46.70;;;;;;;-9.68;100.00;158070.59;5009649;28;20120;-63
2022/12/18 02:13:45;;;;;;;100.70;48.97;;;;;;;-9.63;100.00;158082.56;5011198;28;20025;-63
2022/12/18 02:16:39;;;;;;;85.00;45.53;;;;;;;-9.61;100.00;158089.22;5009741;28;20540;-62
2022/12/18 02:19:23;;;;;;;95.88;44.40;;;;;;;-9.56;100.00;158102.50;5011675;28;20354;-63
2022/12/18 02:22:18;;;;;;;101.00;49.65;;;;;;;-9.59;100.00;158094.56;5009908;28;20096;-62
2022/12/18 02:25:04;;;;;;;90.50;48.10;;;;;;;-9.58;100.00;158095.84;5010894;28;20028;-63
2022/12/18 02:27:32;;;;;;;84.30;44.25;;;;;;;-9.55;100.00;158103.88;5009629;28;20622;-61
2022/12/18 02:30:00;;;;;;;103.10;50.67;;;;;;;-9.56;100.00;158102.50;5011537;28;20030;-61
2022/12/18 02:32:31;;;;;;;91.95;48.83;;;;;;;-9.59;100.00;158094.56;5008988;28;20045;-62
2022/12/18 02:34:58;;;;;;;79.88;43.47;;;;;;;-9.55;100.00;158103.88;5011295;28;20030;-61
2022/12/18 02:37:27;;;;;;;85.43;46.80;;;;;;;-9.59;100.00;158094.56;5009728;28;20042;-61
2022/12/18 02:39:56;;;;;;;93.43;42.40;;;;;;;-9.60;100.00;158091.88;5010886;28;20076;-61
2022/12/18 02:42:22;;;;;;;79.10;39.47;;;;;;;-9.64;100.00;158081.22;5009515;28;20038;-62
2022/12/18 02:44:50;;;;;;;92.97;43.08;;;;;;;-9.67;100.00;158073.25;5011058;28;20413;-61
2022/12/18 02:47:22;;;;;;;94.10;41.95;;;;;;;-9.69;100.00;158067.94;5008869;28;20053;-61
2022/12/18 02:50:00;;;;;;;92.55;44.28;;;;;;;-9.70;100.00;158065.25;5011060;28;20097;-61
2022/12/18 02:53:15;;;;;;;104.20;44.40;;;;;;;-9.69;100.00;158067.94;5009690;28;20046;-61
2022/12/18 02:56:28;;;;;;;76.38;41.03;;;;;;;-9.68;100.00;158070.59;5006502;28;20149;-61
2022/12/18 02:59:06;;;;;;;81.15;43.13;;;;;;;-9.74;100.00;158054.66;4950176;29;20027;-60
2022/12/18 03:01:52;;;;;;;;;;;;;;;-9.78;100.00;158043.97;5002644;28;20560;-61
2022/12/18 03:04:26;;;;;;;71.03;38.70;;;;;;;-9.85;100.00;158026.72;5011645;28;19964;-60
2022/12/18 03:06:56;;;;;;;94.75;42.33;;;;;;;-9.92;100.00;158009.41;5009341;28;20121;-59
2022/12/18 03:09:30;;;;;;;89.80;39.95;;;;;;;-9.96;100.00;157998.78;5010551;28;20112;-59
2022/12/18 03:14:53;;;;;;;88.10;39.33;;;;;;;-9.89;100.00;158017.41;5011079;28;20508;-59
2022/12/18 03:17:20;;;;;;;77.63;42.10;;;;;;;-9.89;100.00;158017.41;5008750;28;20122;-59
2022/12/18 03:19:47;;;;;;;84.07;42.05;;;;;;;-9.86;100.00;158022.75;5010894;28;20049;-59
2022/12/18 03:22:14;;;;;;;79.03;40.00;;;;;;;-9.89;100.00;158017.41;5009005;28;20098;-60
2022/12/18 03:24:40;;;;;;;74.35;41.78;;;;;;;-9.89;100.00;158017.41;5009088;28;20469;-60
2022/12/18 03:27:11;;;;;;;94.13;39.22;;;;;;;-9.92;100.00;158009.41;5008960;28;20120;-59
2022/12/18 03:29:42;;;;;;;64.03;35.65;;;;;;;-9.93;100.00;158006.75;5010821;28;20036;-59
2022/12/18 03:32:11;;;;;;;82.30;39.75;;;;;;;-9.92;100.00;158008.09;5008610;28;20408;-59
2022/12/18 03:34:40;;;;;;;90.00;39.70;;;;;;;-9.95;100.00;158001.47;5010659;28;20023;-60
2022/12/18 03:37:06;;;;;;;79.13;44.25;;;;;;;-9.94;100.00;158004.09;5008744;28;20046;-60
2022/12/18 03:39:32;;;;;;;78.38;41.15;;;;;;;-9.91;100.00;158010.78;5010340;28;20022;-60
2022/12/18 03:42:06;;;;;;;63.30;36.72;;;;;;;-9.93;100.00;158006.75;5009115;28;20464;-60
2022/12/18 03:44:44;;;;;;;75.50;37.30;;;;;;;-9.92;100.00;158009.41;5012096;28;20050;-60
2022/12/18 03:47:25;;;;;;;78.38;38.60;;;;;;;-9.91;100.00;158012.09;5012231;28;20574;-60
2022/12/18 03:49:59;;;;;;;75.68;38.85;;;;;;;-9.89;100.00;158017.41;5014236;28;20030;-60
2022/12/18 03:52:38;;;;;;;74.55;35.70;;;;;;;-9.91;100.00;158010.78;5012694;28;20120;-60
2022/12/18 03:55:05;;;;;;;;;;;;;;;-9.93;100.00;158006.75;5014226;28;20059;-60
2022/12/18 03:57:32;;;;;;;70.10;36.33;;;;;;;-9.93;100.00;158006.75;5012424;28;19928;-61
2022/12/18 04:00:02;;;;;;;72.43;41.90;;;;;;;-9.92;100.00;158009.41;5013920;28;20105;-61
2022/12/18 04:02:29;;;;;;;72.90;34.70;;;;;;;-9.96;100.00;157997.44;5012311;28;20038;-60
2022/12/18 04:04:59;;;;;;;67.07;37.42;;;;;;;-9.91;100.00;158012.09;5013994;28;20061;-61
2022/12/18 04:07:25;;;;;;;79.65;39.13;;;;;;;-9.90;100.00;158014.75;5012294;28;20057;-60
2022/12/18 04:09:55;;;;;;;72.68;37.30;;;;;;;-9.89;100.00;158017.41;5013653;28;20477;-60
2022/12/18 04:12:21;;;;;;;68.93;39.05;;;;;;;-9.81;100.00;158036.03;5012724;28;20034;-60
2022/12/18 04:14:46;;;;;;;74.80;33.85;;;;;;;-9.75;100.00;158051.97;5013944;28;20374;-59
2022/12/18 04:17:11;;;;;;;78.40;36.67;;;;;;;-9.77;100.00;158046.66;5010357;28;20097;-60
2022/12/18 04:19:37;;;;;;;58.72;31.10;;;;;;;-9.78;100.00;158045.34;5013853;28;20041;-60
2022/12/18 04:22:02;;;;;;;67.55;32.70;;;;;;;-9.77;100.00;158046.66;5012027;28;20504;-60
2022/12/18 04:24:27;;;;;;;68.03;34.20;;;;;;;-9.80;100.00;158040.00;5013343;28;20018;-59
2022/12/18 04:26:53;;;;;;;68.20;34.85;;;;;;;-9.83;100.00;158030.69;5012219;28;20092;-59
2022/12/18 04:29:19;;;;;;;63.15;36.55;;;;;;;-9.82;100.00;158033.38;5013588;28;20476;-59
2022/12/18 04:31:44;;;;;;;60.03;32.92;;;;;;;-9.82;100.00;158033.38;5011891;28;20065;-59
2022/12/18 04:34:09;;;;;;;71.45;36.63;;;;;;;-9.87;100.00;158021.38;5013285;28;20022;-59
2022/12/18 04:36:35;;;;;;;53.40;32.85;;;;;;;-9.90;100.00;158014.75;5011679;28;20386;-59
2022/12/18 04:39:00;;;;;;;52.50;31.38;;;;;;;-9.98;100.00;157992.16;5012713;28;20108;-60
2022/12/18 04:41:25;;;;;;;66.80;35.38;;;;;;;-10.05;100.00;157974.84;5011910;28;20072;-60
2022/12/18 04:43:51;;;;;;;59.67;34.30;;;;;;;-10.10;100.00;157961.56;5011864;28;20034;-60
2022/12/18 04:46:16;;;;;;;53.28;32.63;;;;;;;-10.14;100.00;157950.91;5011116;28;20041;-61
2022/12/18 04:48:41;;;;;;;61.50;33.63;;;;;;;-10.13;100.00;157953.56;5013203;28;20033;-60
2022/12/18 04:51:07;;;;;;;60.65;32.50;;;;;;;-10.14;100.00;157950.91;5011412;28;20041;-61
2022/12/18 04:53:33;;;;;;;55.53;32.42;;;;;;;-10.14;100.00;157952.25;5012871;28;20358;-62
2022/12/18 04:56:12;;;;;;;55.35;30.55;;;;;;;-10.12;100.00;157956.25;5010938;28;20042;-60
2022/12/18 04:58:40;;;;;;;59.13;32.65;;;;;;;-10.10;100.00;157961.56;5013174;28;20242;-60
2022/12/18 05:01:07;;;;;;;58.40;30.30;;;;;;;-10.06;100.00;157972.19;5010892;28;20042;-61
2022/12/18 05:03:32;;;;;;;58.53;31.15;;;;;;;-10.08;100.00;157968.22;5012972;28;20049;-61
2022/12/18 05:05:58;;;;;;;69.63;34.38;;;;;;;-10.09;100.00;157964.25;5011036;28;20080;-61
2022/12/18 05:08:23;;;;;;;58.22;33.95;;;;;;;-10.09;100.00;157964.25;5027048;28;20048;-60
2022/12/18 05:10:49;;;;;;;58.75;33.25;;;;;;;-10.03;100.00;157980.19;5031124;28;20025;-61
2022/12/18 05:13:14;;;;;;;50.78;29.77;;;;;;;-10.02;100.00;157981.50;5031955;28;20033;-61
2022/12/18 05:15:39;;;;;;;53.45;31.65;;;;;;;-10.01;100.00;157985.47;5011273;28;20026;-61
2022/12/18 05:18:05;;;;;;;66.78;34.17;;;;;;;-9.99;100.00;157989.50;5012327;28;20500;-60
2022/12/18 05:20:30;;;;;;;50.65;29.27;;;;;;;-9.96;100.00;157998.78;5012540;28;20040;-61
2022/12/18 05:22:55;;;;;;;56.10;30.42;;;;;;;-9.96;100.00;157998.78;5010818;28;20065;-62
2022/12/18 05:25:22;;;;;;;48.50;33.92;;;;;;;-10.00;100.00;157988.13;5012524;28;20062;-63
2022/12/18 05:27:47;;;;;;;45.35;29.20;;;;;;;-10.02;100.00;157982.84;5010920;28;20042;-63
2022/12/18 05:30:14;;;;;;;56.28;33.20;;;;;;;-10.00;100.00;157988.13;5011909;28;20030;-64
2022/12/18 05:32:40;;;;;;;67.60;29.08;;;;;;;-9.96;100.00;157998.78;5010862;28;20042;-63
2022/12/18 05:35:07;;;;;;;58.33;32.38;;;;;;;-9.95;100.00;158000.09;5012342;28;20381;-64
2022/12/18 05:37:32;;;;;;;55.28;29.40;;;;;;;-9.98;100.00;157993.47;5010295;28;20517;-60
2022/12/18 05:39:57;;;;;;;55.90;30.83;;;;;;;-9.98;100.00;157993.47;5011990;28;20026;-62
2022/12/18 05:42:23;;;;;;;52.53;31.13;;;;;;;-10.04;100.00;157978.84;5013957;28;20045;-62
2022/12/18 05:44:48;;;;;;;55.22;30.83;;;;;;;-10.07;100.00;157969.53;5031488;28;20394;-62
2022/12/18 05:47:14;;;;;;;47.28;29.15;;;;;;;-10.08;100.00;157966.84;5030066;28;20554;-62
2022/12/18 05:49:39;;;;;;;51.05;30.77;;;;;;;-10.11;100.00;157960.22;5031654;28;20029;-62
2022/12/18 05:52:04;;;;;;;52.38;31.08;;;;;;;-10.15;100.00;157948.25;5029820;28;20045;-62
2022/12/18 05:54:30;;;;;;;55.70;30.75;;;;;;;-10.15;100.00;157948.25;5031803;28;20076;-62
2022/12/18 05:56:56;;;;;;;48.05;25.83;;;;;;;-10.17;100.00;157942.97;5028390;28;20041;-61
2022/12/18 05:59:21;;;;;;;50.90;28.15;;;;;;;-10.11;100.00;157958.91;5011519;28;20033;-60
2022/12/18 06:01:47;;;;;;;43.92;28.88;;;;;;;-10.11;100.00;157958.91;5010425;28;20056;-60
2022/12/18 06:04:12;;;;;;;50.25;26.60;;;;;;;-10.12;100.00;157956.25;5011716;28;20025;-60
2022/12/18 06:06:37;;;;;;;42.25;26.48;;;;;;;-10.17;100.00;157942.97;5009280;28;20053;-60
2022/12/18 06:09:08;;;;;;;47.13;28.70;;;;;;;-10.20;100.00;157936.31;5011563;28;20219;-60
2022/12/18 06:11:34;;;;;;;45.95;27.38;;;;;;;-10.23;100.00;157929.63;5010287;28;20558;-61
2022/12/18 06:14:00;;;;;;;52.60;29.60;;;;;;;-10.24;100.00;157925.66;5011129;28;20025;-60
2022/12/18 06:16:26;;;;;;;41.42;28.88;;;;;;;-10.26;100.00;157920.34;5010348;28;20052;-60
2022/12/18 06:18:52;;;;;;;45.78;26.95;;;;;;;-10.30;100.00;157911.03;5011535;28;20538;-61
2022/12/18 06:21:17;;;;;;;44.83;26.42;;;;;;;-10.33;100.00;157903.06;5009652;28;20038;-61
2022/12/18 06:23:43;;;;;;;46.90;28.50;;;;;;;-10.41;100.00;157881.84;5011600;28;20453;-62
2022/12/18 06:26:14;;;;;;;52.92;28.02;;;;;;;-10.41;100.00;157883.16;5009838;28;20093;-60
2022/12/18 06:28:39;;;;;;;49.10;28.88;;;;;;;-10.44;100.00;157873.84;5011237;28;20084;-60
2022/12/18 06:31:05;;;;;;;51.53;29.83;;;;;;;-10.47;100.00;157865.91;5009730;28;20096;-60
2022/12/18 06:33:31;;;;;;;44.67;27.17;;;;;;;-10.48;100.00;157863.25;5011108;28;20029;-60
2022/12/18 06:36:02;;;;;;;46.20;28.30;;;;;;;-10.48;100.00;157863.25;5009452;28;20042;-59
2022/12/18 06:38:27;;;;;;;43.08;28.15;;;;;;;-10.47;100.00;157865.91;5023076;28;20082;-60
2022/12/18 06:40:53;;;;;;;45.25;25.23;;;;;;;-10.45;100.00;157871.19;5008089;28;20059;-62
2022/12/18 06:43:18;;;;;;;46.63;29.40;;;;;;;-10.46;100.00;157869.88;5021399;28;20032;-60
2022/12/18 06:45:43;;;;;;;44.30;28.45;;;;;;;-10.44;100.00;157873.84;5009618;28;20050;-59
2022/12/18 06:48:09;;;;;;;39.80;25.17;;;;;;;-10.46;100.00;157869.88;5021164;28;20025;-59
2022/12/18 06:50:34;;;;;;;44.13;25.98;;;;;;;-10.46;100.00;157868.59;5028118;28;20542;-59
2022/12/18 06:52:59;;;;;;;45.30;26.75;;;;;;;-10.41;100.00;157881.84;5017737;28;20072;-61
2022/12/18 06:55:25;;;;;;;42.92;26.45;;;;;;;-10.32;100.00;157905.75;5026178;28;20036;-61
2022/12/18 06:57:51;;;;;;;54.55;29.60;;;;;;;-10.26;100.00;157921.69;5020596;28;20044;-61
2022/12/18 07:00:16;;;;;;;48.35;26.65;;;;;;;-10.20;100.00;157936.31;5030209;28;20824;-61
2022/12/18 07:02:42;;;;;;;43.55;25.70;;;;;;;-10.11;100.00;157958.91;5026750;28;20038;-61
2022/12/18 07:05:07;;;;;;;44.35;27.58;;;;;;;-10.05;100.00;157974.84;5028542;28;20040;-61
2022/12/18 07:07:34;;;;;;;37.67;26.58;;;;;;;-9.98;100.00;157993.47;5023023;28;20124;-61
2022/12/18 07:09:59;;;;;;;47.53;27.30;;;;;;;-9.91;100.00;158012.09;5022509;28;20038;-61
2022/12/18 07:12:26;;;;;;;39.30;26.90;;;;;;;-9.81;100.00;158036.03;5022347;28;20033;-61
2022/12/18 07:14:51;;;;;;;50.95;25.38;;;;;;;-9.66;100.00;158075.94;5020086;28;20535;-61
2022/12/18 07:17:16;;;;;;;39.85;24.23;;;;;;;-9.60;100.00;158091.88;5017124;28;20038;-61
2022/12/18 07:19:42;;;;;;;40.75;25.10;;;;;;;-9.48;100.00;158122.47;5024111;28;20018;-61
2022/12/18 07:22:07;;;;;;;38.28;27.77;;;;;;;-9.43;100.00;158134.47;5025058;28;20048;-61
2022/12/18 07:24:34;;;;;;;41.38;25.67;;;;;;;-9.38;100.00;158147.75;5024443;28;20029;-59
2022/12/18 07:26:59;;;;;;;37.65;25.98;;;;;;;-9.38;100.00;158147.75;5030339;28;20033;-59
2022/12/18 07:29:25;;;;;;;36.55;25.38;;;;;;;-9.32;100.00;158163.69;5022412;28;20021;-59
2022/12/18 07:31:50;;;;;;;36.33;22.85;;;;;;;-9.22;100.00;158187.66;5030898;28;20096;-59
2022/12/18 07:34:16;;;;;;;34.10;24.98;;;;;;;-9.11;100.00;158218.28;5030577;28;20083;-59
2022/12/18 07:36:42;;;;;;;36.17;26.88;;;;;;;-8.98;100.00;158250.19;5026867;28;20048;-59
2022/12/18 07:39:07;;;;;;;38.85;25.25;;;;;;;-8.88;100.00;158276.81;5023999;28;20026;-60
2022/12/18 07:41:32;;;;;;;37.17;24.13;;;;;;;-8.90;100.00;158270.19;5022661;28;20042;-60
2022/12/18 07:43:58;;;;;;;41.05;22.73;;;;;;;-8.72;100.00;158318.06;5032765;28;20029;-59
2022/12/18 07:46:23;;;;;;;40.60;25.27;;;;;;;-8.62;100.00;158343.34;5032316;28;20052;-59
2022/12/18 07:48:48;;;;;;;41.65;26.63;;;;;;;-8.53;100.00;158366.00;5032695;28;20040;-59
2022/12/18 07:51:14;;;;;;;35.08;22.75;;;;;;;-8.44;100.00;158389.88;5031430;28;20053;-59
2022/12/18 07:53:40;;;;;;;37.15;24.33;;;;;;;-8.38;100.00;158405.91;5033473;28;20029;-60
2022/12/18 07:56:09;;;;;;;30.05;23.42;;;;;;;-8.27;100.00;158433.84;5030992;28;20399;-60
2022/12/18 07:58:36;;;;;;;38.95;24.45;;;;;;;-8.22;100.00;158445.81;5032230;28;20033;-60
2022/12/18 08:01:05;;;;;;;30.02;22.83;;;;;;;-8.11;100.00;158475.13;5031819;28;20057;-60
2022/12/18 08:03:31;;;;;;;37.22;22.15;;;;;;;-8.04;100.00;158492.47;5030710;28;20112;-60
2022/12/18 08:06:01;;;;;;;28.05;20.10;;;;;;;-8.01;100.00;158501.78;5020412;28;20408;-60
2022/12/18 08:08:26;;;;;;;28.95;20.17;;;;;;;-7.95;100.00;158515.06;5013699;28;20040;-60
2022/12/18 08:10:51;;;;;;;30.05;20.52;;;;;;;-7.90;100.00;158528.38;5017527;28;20512;-60
2022/12/18 08:13:17;;;;;;;32.03;21.45;;;;;;;-7.87;100.00;158536.41;5031009;28;20029;-60
2022/12/18 08:15:42;;;;;;;27.92;19.42;;;;;;;-7.84;100.00;158544.34;5022052;28;20506;-60
2022/12/18 08:18:08;;;;;;;31.63;21.40;;;;;;;-7.79;100.00;158557.72;5017118;28;20380;-60
2022/12/18 08:20:33;;;;;;;27.65;20.45;;;;;;;-7.74;100.00;158571.03;5029561;28;20078;-60
2022/12/18 08:22:58;;;;;;;31.30;21.75;;;;;;;-7.58;100.00;158611.00;5032672;28;20053;-59
2022/12/18 08:25:24;;;;;;;29.35;20.65;;;;;;;-7.49;100.00;158634.97;5017883;28;20208;-60
2022/12/18 08:27:49;;;;;;;32.67;23.27;;;;;;;-7.40;100.00;158657.63;5026280;28;20062;-60
2022/12/18 08:30:14;;;;;;;29.00;19.92;;;;;;;-7.33;100.00;158677.59;5018653;28;20025;-66
2022/12/18 08:32:40;;;;;;;26.48;20.05;;;;;;;-7.24;100.00;158698.91;5030286;28;20618;-62
2022/12/18 08:35:05;;;;;;;27.73;22.00;;;;;;;-7.18;100.00;158714.88;5012141;28;20026;-63
2022/12/18 08:37:31;;;;;;;28.73;20.20;;;;;;;-7.13;100.00;158728.25;5012396;28;20473;-62
2022/12/18 08:39:56;;;;;;;25.17;18.23;;;;;;;-7.07;100.00;158744.25;5022111;28;20041;-62
2022/12/18 08:45:16;;;;;;;24.98;20.08;;;;;;;-6.92;100.00;158781.56;5008707;28;20104;-62
2022/12/18 08:47:41;;;;;;;20.02;17.80;;;;;;;-6.79;100.00;158814.91;5011685;28;20037;-62
2022/12/18 08:50:08;;;;;;;27.33;19.73;;;;;;;-6.70;100.00;158840.22;5011151;28;20030;-62
2022/12/18 08:52:34;;;;;;;29.55;20.27;;;;;;;-6.63;100.00;158856.19;5017396;28;20053;-62
2022/12/18 08:54:59;;;;;;;23.90;18.98;;;;;;;-6.52;100.00;158885.56;5030580;28;20036;-62
2022/12/18 08:57:24;;;;;;;26.17;18.90;;;;;;;-6.37;100.00;158925.53;5027406;28;20107;-62
2022/12/18 08:59:50;;;;;;;30.77;19.27;;;;;;;-6.14;100.00;158984.22;5016985;28;20045;-62
2022/12/18 09:02:15;;;;;;;21.35;17.17;;;;;;;-5.94;100.00;159034.88;5010691;28;20098;-62
2022/12/18 09:04:41;;;;;;;28.50;18.15;;;;;;;-5.85;100.00;159057.53;5015402;28;20048;-62
2022/12/18 09:07:06;;;;;;;29.38;20.40;;;;;;;-5.75;100.00;159084.25;5017686;28;20049;-62
2022/12/18 09:09:32;;;;;;;21.83;19.65;;;;;;;-5.64;100.00;159112.25;5014134;28;20030;-62
2022/12/18 09:11:57;;;;;;;23.20;18.27;;;;;;;-5.49;100.00;159152.28;5009859;28;20356;-62
2022/12/18 09:14:23;;;;;;;22.40;15.93;;;;;;;-5.36;100.00;159185.63;5012957;28;20018;-62
2022/12/18 09:16:48;;;;;;;20.17;15.82;;;;;;;-5.30;100.00;159201.69;5029979;28;20555;-62
2022/12/18 09:19:14;;;;;;;17.92;16.13;;;;;;;-5.30;100.00;159200.31;5030671;28;20033;-62
2022/12/18 09:21:39;;;;;;;23.85;16.13;;;;;;;-5.40;100.00;159173.66;5028918;28;20064;-62
2022/12/18 09:24:05;;;;;;;20.50;15.88;;;;;;;-5.31;100.00;159197.63;5025672;28;20534;-62
2022/12/18 09:26:31;;;;;;;18.88;16.77;;;;;;;-5.16;100.00;159237.69;5010026;28;20048;-62
2022/12/18 09:28:56;;;;;;;19.67;16.67;;;;;;;-4.94;100.00;159293.75;5022405;28;20033;-62
2022/12/18 09:31:23;;;;;;;18.13;14.55;;;;;;;-4.57;100.00;159388.56;5026646;28;20049;-62
2022/12/18 09:33:49;;;;;;;20.05;14.13;;;;;;;-4.10;100.00;159510.13;5029754;28;20036;-62
2022/12/18 09:36:16;;;;;;;19.98;16.40;;;;;;;-3.65;100.00;159627.69;5020281;28;20041;-62
2022/12/18 09:38:41;;;;;;;18.48;14.73;;;;;;;-3.28;100.00;159723.94;5019473;28;20025;-61
2022/12/18 09:41:32;;;;;;;16.55;14.95;;;;;;;-2.91;100.00;159820.19;5012710;28;20518;-62
2022/12/18 09:44:02;;;;;;;19.98;13.20;;;;;;;-2.73;100.00;159867.00;5011225;28;20076;-62
2022/12/18 09:46:35;;;;;;;15.73;13.40;;;;;;;-2.67;100.00;159880.34;5010477;28;20172;-61
2022/12/18 09:49:05;;;;;;;18.58;12.98;;;;;;;-2.92;100.00;159817.50;5010523;28;20025;-61
2022/12/18 09:51:39;;;;;;;26.45;14.60;;;;;;;-3.06;100.00;159781.44;5010338;28;20037;-61
2022/12/18 09:54:11;;;;;;;16.92;12.27;;;;;;;-3.27;100.00;159725.25;5011117;28;20065;-61
2022/12/18 09:56:41;;;;;;;18.42;12.75;;;;;;;-3.19;100.00;159746.66;5027970;28;20033;-61
2022/12/18 09:59:31;;;;;;;15.00;12.82;;;;;;;-3.33;100.00;159710.59;5025648;28;20022;-61
2022/12/18 10:01:57;;;;;;;17.02;13.70;;;;;;;-3.43;100.00;159683.81;5011461;28;20493;-61
2022/12/18 10:04:23;;;;;;;13.73;12.05;;;;;;;-3.42;100.00;159686.50;5019750;28;20040;-61
2022/12/18 10:07:02;;;;;;;17.73;12.73;;;;;;;-3.56;100.00;159650.41;5026656;28;20083;-61
2022/12/18 10:09:27;;;;;;;;;;;;;;;-3.60;100.00;159641.03;5018546;28;20048;-61
2022/12/18 10:12:26;;;;;;;13.70;11.90;;;;;;;-3.61;100.00;159638.38;5026835;28;19917;-60
2022/12/18 10:15:22;;;;;;;18.88;13.45;;;;;;;-3.55;100.00;159654.44;5029853;28;20493;-61
2022/12/18 10:18:19;;;;;;;16.40;13.60;;;;;;;-3.52;100.00;159662.44;5020132;28;20146;-61
2022/12/18 10:20:49;;;;;;;15.88;12.95;;;;;;;-3.36;100.00;159702.53;5020459;28;20029;-61
2022/12/18 10:23:30;;;;;;;15.65;11.02;;;;;;;-3.31;100.00;159715.91;5021279;28;20045;-61
2022/12/18 10:26:02;;;;;;;17.52;11.23;;;;;;;-3.11;100.00;159766.72;5019417;28;20041;-61
2022/12/18 10:28:30;;;;;;;14.18;11.75;;;;;;;-3.10;100.00;159770.72;5029334;28;20033;-61
2022/12/18 10:30:56;;;;;;;17.45;12.63;;;;;;;-3.06;100.00;159780.06;5008635;28;20113;-60
2022/12/18 10:33:24;;;;;;;15.00;12.30;;;;;;;-3.00;100.00;159796.13;5009431;28;20033;-61
2022/12/18 10:35:50;;;;;;;15.40;11.63;;;;;;;-2.99;100.00;159798.78;5009949;28;20057;-61
2022/12/18 10:38:16;;;;;;;14.48;12.90;;;;;;;-3.00;100.00;159794.78;5021640;28;20021;-61
2022/12/18 10:41:03;;;;;;;14.23;10.75;;;;;;;-2.92;100.00;159817.50;4941578;28;20128;-61
2022/12/18 10:43:35;;;;;;;15.15;12.05;;;;;;;-2.91;100.00;159820.19;5010190;28;20120;-61
2022/12/18 10:46:20;;;;;;;14.25;11.82;;;;;;;-2.86;100.00;159832.22;4978017;28;20046;-61
2022/12/18 10:48:49;;;;;;;11.52;10.35;;;;;;;-2.76;100.00;159857.63;5025044;28;20124;-61
2022/12/18 10:51:26;;;;;;;14.95;10.82;;;;;;;-2.72;100.00;159868.34;4993952;28;20515;-61
2022/12/18 10:53:55;;;;;;;13.82;9.85;;;;;;;-2.66;100.00;159884.41;4992696;28;20033;-61
2022/12/18 10:56:22;;;;;;;13.52;9.80;;;;;;;-2.62;100.00;159895.06;4925843;28;20037;-61
2022/12/18 10:59:00;;;;;;;13.38;10.75;;;;;;;-2.53;100.00;159916.47;5017134;28;20105;-61
2022/12/18 11:01:27;;;;;;;13.75;10.63;;;;;;;-2.52;100.00;159919.16;5015866;28;20105;-61
2022/12/18 11:03:52;;;;;;;14.65;10.13;;;;;;;-2.48;100.00;159929.84;4988386;28;20064;-61
2022/12/18 11:06:24;;;;;;;13.85;10.05;;;;;;;-2.45;100.00;159937.88;4978151;28;20400;-61
2022/12/18 11:09:05;;;;;;;12.35;9.80;;;;;;;-2.46;100.00;159935.22;5009599;28;20622;-61
2022/12/18 11:11:33;;;;;;;16.60;11.02;;;;;;;-2.46;100.00;159936.56;4973076;28;20034;-61
2022/12/18 11:14:03;;;;;;;12.60;10.93;;;;;;;-2.45;100.00;159939.22;4985039;28;20944;-61
2022/12/18 11:16:30;;;;;;;12.63;10.18;;;;;;;-2.40;100.00;159951.25;5010288;28;20053;-61